Flight Track Log - Related Links

Times and Time Zones

All times are in EDT time to prevent confusion due to time zone crossing. See the N9114D flight status page for this flight to view local times or setup timezone preferences in your user account.

Time Position Orientation Groundspeed Altitude Reporting Facility
EDT Latitude Longitude Course Direction KTS MPH feet Rate Location/Type
Tue 07:32:28 AM 27.9167 -82.6833 360° North 59 68 300  Level Tampa TRACON
Tue 07:33:16 AM 27.9333 -82.6833 360° North 102 117 900 706 Climbing Tampa TRACON
Tue 07:34:10 AM 27.9167 -82.7167 241° Southwest 110 127 1,500 750 Climbing Tampa TRACON
Tue 07:35:16 AM 27.9167 -82.7500 270° West 102 117 2,400 667 Climbing Tampa TRACON
Tue 07:36:16 AM 27.9167 -82.7833 270° West 96 110 2,900 250 Climbing Tampa TRACON
Tue 07:37:16 AM 27.9000 -82.8167 241° Southwest 108 124 2,900 53 Level Tampa TRACON
Tue 07:38:10 AM 27.9167 -82.8333 319° Northwest 100 115 3,000 105 Climbing Tampa TRACON
Tue 07:39:10 AM 27.9000 -82.8667 241° Southwest 99 114 3,100 50 Climbing Tampa TRACON
Tue 07:40:10 AM 27.9000 -82.9000 270° West 107 123 3,100 -48 Level Tampa TRACON
Tue 07:41:16 AM 27.9167 -82.8667 60° Northeast 104 120 3,000 -53 Descending Tampa TRACON
Tue 07:42:04 AM 27.9167 -82.8333 90° East 102 117 3,000 -53 Level Tampa TRACON
Tue 07:43:10 AM 27.9000 -82.8333 180° South 108 124 2,900  Descending Tampa TRACON
Tue 07:44:10 AM 27.9000 -82.8667 270° West 106 122 3,000  Climbing Tampa TRACON
Tue 07:45:16 AM 27.9167 -82.8500 41° Northeast 105 121 2,900 -50 Descending Tampa TRACON
Tue 07:46:11 AM 27.9167 -82.8333 90° East 103 119 2,900  Level Tampa TRACON
Tue 07:47:17 AM 27.8833 -82.8500 204° Southwest 107 123 2,900 50 Level Tampa TRACON
Tue 07:48:11 AM 27.9000 -82.8667 319° Northwest 106 122 3,000 53 Climbing Tampa TRACON
Tue 07:49:11 AM 27.9000 -82.8500 90° East 99 114 3,000  Level Tampa TRACON
Tue 07:50:17 AM 27.9000 -82.8167 90° East 101 116 3,000  Level Tampa TRACON
Tue 07:51:17 AM 27.8833 -82.8500 241° Southwest 109 125 3,000 50 Level Tampa TRACON
Tue 07:52:17 AM 27.9000 -82.8833 300° West 99 114 3,100  Climbing Tampa TRACON
Tue 07:53:17 AM 27.9167 -82.8500 60° Northeast 102 117 3,000 -50 Descending Tampa TRACON
Tue 07:54:17 AM 27.9000 -82.8333 139° Southeast 99 114 3,000  Level Tampa TRACON
Tue 07:55:17 AM 27.8833 -82.8500 221° Southwest 107 123 3,000 50 Level Tampa TRACON
Tue 07:56:17 AM 27.9000 -82.8833 300° West 105 121 3,100  Climbing Tampa TRACON
Tue 07:57:17 AM 27.9167 -82.8667 41° Northeast 98 113 3,000 -100 Descending Tampa TRACON
Tue 07:58:17 AM 27.9167 -82.8333 90° East 95 109 2,900  Descending Tampa TRACON
Tue 07:59:18 AM 27.9000 -82.8333 180° South 100 115 3,000 47 Climbing Tampa TRACON
Tue 08:00:24 AM 27.8833 -82.8667 241° Southwest 100 115 3,000  Level Tampa TRACON
Tue 08:01:18 AM 27.9000 -82.8667 360° North 96 110 3,000 56 Level Tampa TRACON
Tue 08:02:12 AM 27.9000 -82.8500 90° East 91 105 3,100  Climbing Tampa TRACON
Tue 08:03:18 AM 27.8833 -82.8333 139° Southeast 99 114 3,000  Descending Tampa TRACON
Tue 08:04:18 AM 27.8667 -82.8167 139° Southeast 96 110 3,100 -100 Climbing Tampa TRACON
Tue 08:05:18 AM 27.8333 -82.8167 180° South 96 110 2,800 -364 Descending Tampa TRACON
Tue 08:06:30 AM 27.8167 -82.8000 139° Southeast 91 105 2,300 -381 Descending Tampa TRACON
Tue 08:07:24 AM 27.8000 -82.7833 139° Southeast 80 92 2,000 -105 Descending Tampa TRACON
Tue 08:08:24 AM 27.7667 -82.7833 180° South 85 98 2,100  Climbing Tampa TRACON
Tue 08:09:12 AM 27.7500 -82.7667 138° Southeast 87 100 2,000 -56 Descending Tampa TRACON
Tue 08:10:12 AM 27.7500 -82.7333 90° East 84 97 2,000  Level Tampa TRACON
Tue 08:11:12 AM 27.7500 -82.7167 90° East 81 93 2,000  Level Tampa TRACON
Tue 08:12:12 AM 27.7333 -82.6833 119° Southeast 80 92 2,000  Level Tampa TRACON
Tue 08:13:12 AM 27.7500 -82.6667 42° Northeast 95 109 2,000  Level Tampa TRACON
Tue 08:14:12 AM 27.7667 -82.6667 360° North 103 119 2,000  Level Tampa TRACON
Tue 08:15:12 AM 27.8000 -82.6667 360° North 95 109 2,000 -198 Level Tampa TRACON
Tue 08:16:13 AM 27.8167 -82.6833 319° Northwest 96 110 1,600 -520 Descending Tampa TRACON
Tue 08:17:19 AM 27.8500 -82.6833 360° North 98 113 900 -524 Descending Tampa TRACON
Tue 08:18:19 AM 27.8833 -82.6833 360° North 87 100 500 -200 Descending Tampa TRACON
Tue 08:19:19 AM 27.9000 -82.6833 360° North 79 91 500 316 Level Tampa TRACON
Tue 08:20:13 AM 27.9167 -82.7167 300° West 114 131 1,100 684 Climbing Tampa TRACON
Tue 08:21:13 AM 27.9167 -82.7500 270° West 117 135 1,800 450 Climbing Tampa TRACON
Tue 08:22:13 AM 27.9167 -82.7833 270° West 118 136 2,000 143 Climbing Tampa TRACON
Tue 08:23:19 AM 27.9000 -82.8167 241° Southwest 112 129 2,100 48 Climbing Tampa TRACON
Tue 08:24:19 AM 27.8833 -82.8167 180° South 91 105 2,100 -53 Level Tampa TRACON
Tue 08:25:13 AM 27.8500 -82.8167 180° South 94 108 2,000  Descending Tampa TRACON
Tue 08:26:13 AM 27.8333 -82.8000 139° Southeast 87 100 2,100 50 Climbing Tampa TRACON
Tue 08:27:13 AM 27.8167 -82.7833 139° Southeast 86 99 2,100 -50 Level Tampa TRACON
Tue 08:28:13 AM 27.8000 -82.7500 119° Southeast 87 100 2,000 -45 Descending Tampa TRACON
Tue 08:29:25 AM 27.7667 -82.7500 180° South 100 115 2,000 48 Level Tampa TRACON
Tue 08:30:19 AM 27.7500 -82.7500 180° South 103 119 2,100 53 Climbing Tampa TRACON
Tue 08:31:19 AM 27.7500 -82.7833 270° West 114 131 2,100  Level Tampa TRACON
Tue 08:32:25 AM 27.7833 -82.7833 360° North 101 116 2,100 -238 Level Tampa TRACON
Tue 08:33:25 AM 27.8000 -82.7667 41° Northeast 101 116 1,600 -522 Descending Tampa TRACON
Tue 08:34:20 AM 27.8333 -82.7667 360° North 92 106 1,100 -261 Descending Tampa TRACON
Tue 08:35:20 AM 27.8333 -82.7333 90° East 74 85 1,100 -50 Level Tampa TRACON
Tue 08:36:20 AM 27.8500 -82.7167 41° Northeast 78 90 1,000 -250 Descending Tampa TRACON
Tue 08:37:20 AM 27.8667 -82.7167 360° North 92 106 600 -316 Descending Tampa TRACON
Tue 08:38:14 AM 27.8833 -82.7000 41° Northeast 83 96 400 -222 Descending Tampa TRACON

Login

Don't have an account? Register now (free) for customized features, flight alerts, and more!